createdAt,value
2022-12-04T00:05:01.968Z,1.42
2022-12-04T00:10:08.387Z,1.47
2022-12-04T00:15:27.754Z,1.50
2022-12-04T00:20:31.464Z,1.46
2022-12-04T00:25:41.168Z,1.44
2022-12-04T00:30:46.248Z,1.42
2022-12-04T00:35:49.986Z,1.43
2022-12-04T00:40:55.627Z,1.38
2022-12-04T00:45:59.420Z,1.41
2022-12-04T00:51:04.105Z,1.40
2022-12-04T00:56:11.490Z,1.36
2022-12-04T01:01:16.942Z,1.37
2022-12-04T01:06:23.397Z,1.35
2022-12-04T01:11:30.034Z,1.38
2022-12-04T01:16:36.286Z,1.34
2022-12-04T01:21:40.294Z,1.35
2022-12-04T01:26:45.359Z,1.35
2022-12-04T01:31:49.122Z,1.36
2022-12-04T01:36:53.037Z,1.35
2022-12-04T01:41:58.388Z,1.37
2022-12-04T01:47:02.501Z,1.36
2022-12-04T01:52:10.965Z,1.34
2022-12-04T01:57:18.553Z,1.33
2022-12-04T02:02:25.849Z,1.39
2022-12-04T02:07:30.310Z,1.38
2022-12-04T02:12:43.019Z,1.30
2022-12-04T02:17:55.349Z,1.29
2022-12-04T02:23:26.189Z,1.25
2022-12-04T02:28:36.714Z,1.25
2022-12-04T02:33:45.948Z,1.32
2022-12-04T02:38:56.474Z,1.29
2022-12-04T02:44:08.063Z,1.30
2022-12-04T02:49:18.696Z,1.32
2022-12-04T02:54:26.641Z,1.35
2022-12-04T02:59:32.817Z,1.35
2022-12-04T03:04:39.570Z,1.33
2022-12-04T03:09:47.450Z,1.32
2022-12-04T03:14:58.348Z,1.27
2022-12-04T03:20:07.367Z,1.28
2022-12-04T03:25:12.015Z,1.31
2022-12-04T03:30:20.758Z,1.31
2022-12-04T03:35:30.259Z,1.36
2022-12-04T03:40:38.756Z,1.36
2022-12-04T03:45:48.976Z,1.39
2022-12-04T03:51:02.139Z,1.39
2022-12-04T03:56:12.599Z,1.34
2022-12-04T04:01:22.351Z,1.30
2022-12-04T04:06:31.849Z,1.34
2022-12-04T04:11:41.253Z,1.31
2022-12-04T04:17:07.817Z,1.31
2022-12-04T04:22:29.040Z,1.31
2022-12-04T04:27:32.739Z,1.28
2022-12-04T04:32:44.698Z,1.30
2022-12-04T04:37:57.784Z,1.33
2022-12-04T04:43:07.411Z,1.37
2022-12-04T04:48:16.330Z,1.32
2022-12-04T04:53:24.135Z,1.34
2022-12-04T04:58:27.880Z,1.28
2022-12-04T05:03:33.407Z,1.33
2022-12-04T05:08:37.361Z,1.34
2022-12-04T05:13:41.798Z,1.33
2022-12-04T05:19:07.633Z,1.34
2022-12-04T05:24:11.361Z,1.34
2022-12-04T05:29:15.084Z,1.34
2022-12-04T05:34:20.148Z,1.28
2022-12-04T05:39:23.945Z,1.24
2022-12-04T05:44:27.714Z,1.31
2022-12-04T05:49:34.365Z,1.33
2022-12-04T05:54:38.141Z,1.30
2022-12-04T05:59:41.910Z,1.37
2022-12-04T06:04:47.110Z,1.38
2022-12-04T06:09:50.807Z,1.31
2022-12-04T06:14:54.502Z,1.33
2022-12-04T06:20:00.240Z,1.40
2022-12-04T06:25:04.795Z,1.43
2022-12-04T06:30:09.726Z,1.38
2022-12-04T06:35:14.804Z,1.39
2022-12-04T06:40:18.510Z,1.38
2022-12-04T06:45:22.238Z,1.38
2022-12-04T06:50:27.297Z,1.38
2022-12-04T06:55:31.015Z,1.38
2022-12-04T07:00:34.716Z,1.36
2022-12-04T07:05:39.739Z,1.37
2022-12-04T07:10:43.786Z,1.35
2022-12-04T07:15:47.456Z,1.35
2022-12-04T07:20:52.562Z,1.34
2022-12-04T07:25:56.199Z,1.33
2022-12-04T07:30:59.915Z,1.39
2022-12-04T07:36:08.024Z,1.39
2022-12-04T07:41:12.356Z,1.34
2022-12-04T07:46:18.360Z,1.32
2022-12-04T07:51:25.775Z,1.32
2022-12-04T07:56:29.694Z,1.38
2022-12-04T08:01:33.965Z,1.34
2022-12-04T08:06:39.603Z,1.34
2022-12-04T08:11:43.422Z,1.40
2022-12-04T08:16:52.700Z,1.38
2022-12-04T08:21:58.156Z,1.41
2022-12-04T08:27:01.892Z,1.35
2022-12-04T08:32:05.982Z,1.35
2022-12-04T08:37:11.021Z,1.37
2022-12-04T08:42:14.699Z,1.37
2022-12-04T08:47:18.508Z,1.47
2022-12-04T08:52:23.595Z,1.39
2022-12-04T08:57:27.282Z,1.46
2022-12-04T09:02:30.958Z,1.52
2022-12-04T09:07:36.149Z,1.56
2022-12-04T09:12:40.117Z,1.63
2022-12-04T09:17:43.839Z,1.64
2022-12-04T09:23:03.564Z,1.66
2022-12-04T09:28:07.966Z,1.71
2022-12-04T09:33:11.685Z,1.77
2022-12-04T09:38:16.782Z,1.78
2022-12-04T09:43:32.728Z,1.87
2022-12-04T09:48:41.761Z,1.91
2022-12-04T09:53:50.712Z,1.95
2022-12-04T09:58:59.259Z,1.89
2022-12-04T10:04:06.284Z,1.95
2022-12-04T10:09:18.412Z,2.00
2022-12-04T10:14:42.873Z,2.04
2022-12-04T10:19:57.742Z,2.09
2022-12-04T10:25:09.498Z,2.01
2022-12-04T10:30:20.357Z,1.99
2022-12-04T10:35:26.298Z,2.17
2022-12-04T10:40:36.544Z,2.10
2022-12-04T10:45:40.306Z,2.01
2022-12-04T10:50:45.563Z,1.83
2022-12-04T10:55:50.743Z,1.99
2022-12-04T11:01:04.960Z,1.94
2022-12-04T11:06:11.336Z,1.89
2022-12-04T11:11:23.521Z,1.89
2022-12-04T11:16:35.407Z,1.88
2022-12-04T11:21:39.727Z,1.90
2022-12-04T11:26:44.964Z,1.79
2022-12-04T11:31:50.477Z,1.82
2022-12-04T11:36:57.272Z,1.86
2022-12-04T11:42:07.595Z,1.77
2022-12-04T11:47:18.959Z,1.89
2022-12-04T11:52:32.639Z,1.83
2022-12-04T11:57:44.658Z,1.83
2022-12-04T12:03:10.898Z,1.83
2022-12-04T12:08:24.918Z,1.85
2022-12-04T12:13:36.666Z,1.77
2022-12-04T12:18:55.195Z,1.75
2022-12-04T12:24:10.695Z,1.80
2022-12-04T12:29:30.016Z,1.87
2022-12-04T12:34:39.010Z,1.77
2022-12-04T12:39:49.758Z,1.77
2022-12-04T12:45:04.186Z,1.86
2022-12-04T12:50:16.057Z,1.90
2022-12-04T12:55:25.042Z,1.87
2022-12-04T13:00:33.162Z,1.87
2022-12-04T13:05:40.125Z,1.92
2022-12-04T13:10:49.187Z,1.91
2022-12-04T13:15:59.282Z,1.82
2022-12-04T13:21:07.596Z,1.83
2022-12-04T13:26:22.762Z,1.79
2022-12-04T13:31:36.580Z,1.86
2022-12-04T13:36:58.467Z,1.81
2022-12-04T13:42:05.145Z,1.74
2022-12-04T13:47:28.193Z,1.76
2022-12-04T13:52:40.761Z,1.74
2022-12-04T13:57:54.305Z,1.76
2022-12-04T14:03:02.291Z,1.78
2022-12-04T14:08:09.317Z,1.76
2022-12-04T14:13:20.779Z,1.74
2022-12-04T14:18:30.610Z,1.71
2022-12-04T14:23:39.013Z,1.77
2022-12-04T14:28:45.225Z,1.76
2022-12-04T14:33:53.677Z,1.75
2022-12-04T14:39:05.003Z,1.74
2022-12-04T14:44:20.006Z,1.77
2022-12-04T14:49:36.731Z,1.78
2022-12-04T14:54:51.592Z,1.81
2022-12-04T14:59:56.800Z,1.84
2022-12-04T15:05:03.933Z,1.83
2022-12-04T15:10:38.383Z,1.83
2022-12-04T15:15:46.949Z,1.83
2022-12-04T15:20:58.049Z,1.84
2022-12-04T15:26:04.250Z,1.79
2022-12-04T15:31:15.303Z,1.78
2022-12-04T15:36:32.634Z,1.82
2022-12-04T15:41:38.291Z,1.84
2022-12-04T15:46:44.534Z,1.81
2022-12-04T15:51:49.824Z,1.81
2022-12-04T15:57:01.914Z,1.83
2022-12-04T16:02:10.109Z,1.81
2022-12-04T16:07:23.613Z,1.82
2022-12-04T16:12:29.687Z,1.86
2022-12-04T16:17:36.466Z,1.89
2022-12-04T16:22:42.381Z,1.89
2022-12-04T16:27:46.041Z,1.89
2022-12-04T16:32:49.740Z,1.87
2022-12-04T16:37:54.859Z,1.92
2022-12-04T16:42:58.539Z,1.90
2022-12-04T16:48:02.298Z,1.92
2022-12-04T16:53:07.370Z,1.96
2022-12-04T16:58:11.097Z,1.96
2022-12-04T17:03:17.987Z,1.98
2022-12-04T17:08:24.198Z,2.00
2022-12-04T17:13:27.953Z,1.93
2022-12-04T17:18:31.685Z,1.97
2022-12-04T17:23:36.781Z,2.02
2022-12-04T17:28:41.291Z,2.05
2022-12-04T17:33:45.846Z,2.02
2022-12-04T17:38:54.203Z,1.98
2022-12-04T17:44:01.018Z,2.03
2022-12-04T17:49:07.304Z,2.05
2022-12-04T17:54:13.105Z,2.02
2022-12-04T17:59:16.845Z,1.96
2022-12-04T18:04:20.836Z,2.03
2022-12-04T18:09:25.949Z,1.98
2022-12-04T18:14:30.459Z,2.02
2022-12-04T18:19:34.207Z,2.01
2022-12-04T18:24:39.637Z,2.05
2022-12-04T18:29:43.499Z,2.02
2022-12-04T18:34:47.227Z,2.00
2022-12-04T18:39:52.350Z,2.00
2022-12-04T18:44:56.011Z,2.09
2022-12-04T18:50:00.006Z,2.04
2022-12-04T18:55:05.964Z,2.03
2022-12-04T19:00:10.550Z,2.01
2022-12-04T19:05:14.558Z,2.03
2022-12-04T19:10:19.856Z,2.09
2022-12-04T19:15:23.856Z,2.06
2022-12-04T19:20:27.585Z,2.04
2022-12-04T19:25:32.788Z,2.02
2022-12-04T19:30:36.600Z,2.05
2022-12-04T19:35:40.335Z,2.04
2022-12-04T19:40:45.473Z,2.05
2022-12-04T19:45:49.553Z,2.09
2022-12-04T19:50:53.366Z,2.09
2022-12-04T19:55:58.623Z,2.13
2022-12-04T20:01:03.125Z,2.10
2022-12-04T20:06:08.864Z,2.16
2022-12-04T20:11:17.027Z,2.09
2022-12-04T20:16:21.013Z,2.16
2022-12-04T20:21:28.437Z,2.16
2022-12-04T20:26:37.214Z,2.15
2022-12-04T20:31:42.919Z,2.13
2022-12-04T20:36:48.507Z,2.20
2022-12-04T20:41:53.643Z,2.17
2022-12-04T20:46:59.421Z,2.21
2022-12-04T20:52:03.245Z,2.21
2022-12-04T20:57:08.468Z,2.17
2022-12-04T21:02:14.596Z,2.12
2022-12-04T21:07:18.432Z,2.22
2022-12-04T21:12:43.257Z,2.26
2022-12-04T21:17:47.257Z,2.27
2022-12-04T21:22:53.770Z,2.27
2022-12-04T21:27:58.800Z,2.30
2022-12-04T21:33:02.643Z,2.31
2022-12-04T21:38:06.372Z,2.32
2022-12-04T21:43:11.444Z,2.33
2022-12-04T21:48:15.224Z,2.35
2022-12-04T21:53:18.989Z,2.38
2022-12-04T21:58:25.405Z,2.39
2022-12-04T22:03:29.158Z,2.38
2022-12-04T22:08:35.704Z,2.35
2022-12-04T22:13:41.177Z,2.43
2022-12-04T22:18:45.336Z,2.41
2022-12-04T22:23:49.144Z,2.44
2022-12-04T22:28:54.625Z,2.45
2022-12-04T22:34:00.672Z,2.42
2022-12-04T22:39:11.677Z,2.45
2022-12-04T22:44:16.798Z,2.45
2022-12-04T22:49:20.704Z,2.44
2022-12-04T22:54:24.475Z,2.44
2022-12-04T22:59:29.640Z,2.39
2022-12-04T23:04:33.477Z,2.38
2022-12-04T23:09:37.517Z,2.39
2022-12-04T23:14:42.615Z,2.44
2022-12-04T23:19:46.304Z,2.44
2022-12-04T23:24:50.024Z,2.41
2022-12-04T23:29:55.059Z,2.43
2022-12-04T23:34:58.752Z,2.44
2022-12-04T23:40:02.421Z,2.47
2022-12-04T23:45:08.512Z,2.47
2022-12-04T23:50:12.235Z,2.48
2022-12-04T23:55:16.053Z,2.53
